Terminal Aerodrome Forecast
Issued by NWS

Home | Current Version | Previous Version | Graphics & Text | Print | Product List | Glossary On
Versions: 1 2 3 4 5 6 7 8 9 10 11 12 13 14 15 16 17 18 19
000
FTUS43 KMPX 251739
TAFAXN
TAF
KAXN 251739Z 2518/2618 12012KT P6SM OVC070
     FM252200 15012KT P6SM VCSH BKN050 OVC100
     FM260400 15006KT P6SM BKN060
     FM260800 20006KT P6SM BKN100
     FM261400 24012G19KT P6SM SCT120=

USA.gov is the U.S. government's official web portal to all federal, state and local government web resources and services.